sensor_id;sensor_type;location;lat;lon;timestamp;P1;durP1;ratioP1;P2;durP2;ratioP2
69856;SDS011;57147;53.582;10.112;2023-06-26T00:01:00;11.38;;;10.25;;
69856;SDS011;57147;53.582;10.112;2023-06-26T00:06:01;9.32;;;8.40;;
69856;SDS011;57147;53.582;10.112;2023-06-26T00:11:01;11.35;;;10.25;;
69856;SDS011;57147;53.582;10.112;2023-06-26T00:16:04;9.05;;;7.88;;
69856;SDS011;57147;53.582;10.112;2023-06-26T00:21:05;8.88;;;8.00;;
69856;SDS011;57147;53.582;10.112;2023-06-26T00:26:05;10.20;;;9.20;;
69856;SDS011;57147;53.582;10.112;2023-06-26T00:31:08;8.95;;;8.05;;
69856;SDS011;57147;53.582;10.112;2023-06-26T00:36:09;9.13;;;8.20;;
69856;SDS011;57147;53.582;10.112;2023-06-26T00:41:09;9.48;;;8.48;;
69856;SDS011;57147;53.582;10.112;2023-06-26T00:46:13;8.07;;;7.35;;
69856;SDS011;57147;53.582;10.112;2023-06-26T00:51:14;8.82;;;7.95;;
69856;SDS011;57147;53.582;10.112;2023-06-26T00:56:15;10.30;;;7.43;;
69856;SDS011;57147;53.582;10.112;2023-06-26T01:01:20;9.05;;;8.18;;
69856;SDS011;57147;53.582;10.112;2023-06-26T01:06:21;8.32;;;7.53;;
69856;SDS011;57147;53.582;10.112;2023-06-26T01:11:23;8.95;;;6.82;;
69856;SDS011;57147;53.582;10.112;2023-06-26T01:16:26;9.20;;;7.82;;
69856;SDS011;57147;53.582;10.112;2023-06-26T01:21:29;9.05;;;8.15;;
69856;SDS011;57147;53.582;10.112;2023-06-26T01:26:32;8.63;;;7.78;;
69856;SDS011;57147;53.582;10.112;2023-06-26T01:31:35;8.82;;;7.93;;
69856;SDS011;57147;53.582;10.112;2023-06-26T01:36:36;9.82;;;8.90;;
69856;SDS011;57147;53.582;10.112;2023-06-26T01:41:40;9.23;;;8.32;;
69856;SDS011;57147;53.582;10.112;2023-06-26T01:46:43;9.27;;;8.38;;
69856;SDS011;57147;53.582;10.112;2023-06-26T01:51:54;8.77;;;7.82;;
69856;SDS011;57147;53.582;10.112;2023-06-26T01:57:01;8.73;;;7.90;;
69856;SDS011;57147;53.582;10.112;2023-06-26T02:02:02;9.07;;;8.20;;
69856;SDS011;57147;53.582;10.112;2023-06-26T02:07:06;8.98;;;8.05;;
69856;SDS011;57147;53.582;10.112;2023-06-26T02:12:09;8.57;;;7.70;;
69856;SDS011;57147;53.582;10.112;2023-06-26T02:17:10;8.98;;;8.15;;
69856;SDS011;57147;53.582;10.112;2023-06-26T02:22:11;9.73;;;8.73;;
69856;SDS011;57147;53.582;10.112;2023-06-26T02:27:14;8.65;;;7.75;;
69856;SDS011;57147;53.582;10.112;2023-06-26T02:32:14;7.82;;;6.88;;
69856;SDS011;57147;53.582;10.112;2023-06-26T02:37:15;8.52;;;7.18;;
69856;SDS011;57147;53.582;10.112;2023-06-26T02:42:18;8.27;;;7.45;;
69856;SDS011;57147;53.582;10.112;2023-06-26T02:47:19;7.43;;;6.60;;
69856;SDS011;57147;53.582;10.112;2023-06-26T02:52:19;7.97;;;7.18;;
69856;SDS011;57147;53.582;10.112;2023-06-26T02:57:22;8.27;;;7.47;;
69856;SDS011;57147;53.582;10.112;2023-06-26T03:02:23;9.27;;;8.18;;
69856;SDS011;57147;53.582;10.112;2023-06-26T03:07:24;8.65;;;7.72;;
69856;SDS011;57147;53.582;10.112;2023-06-26T03:12:27;8.23;;;7.43;;
69856;SDS011;57147;53.582;10.112;2023-06-26T03:17:27;9.82;;;8.82;;
69856;SDS011;57147;53.582;10.112;2023-06-26T03:22:28;15.40;;;13.80;;
69856;SDS011;57147;53.582;10.112;2023-06-26T03:27:31;16.17;;;14.27;;
69856;SDS011;57147;53.582;10.112;2023-06-26T03:32:32;9.48;;;8.57;;
69856;SDS011;57147;53.582;10.112;2023-06-26T03:37:32;8.40;;;7.07;;
69856;SDS011;57147;53.582;10.112;2023-06-26T03:42:36;7.45;;;6.70;;
69856;SDS011;57147;53.582;10.112;2023-06-26T03:47:36;7.90;;;6.65;;
69856;SDS011;57147;53.582;10.112;2023-06-26T03:52:37;8.02;;;7.03;;
69856;SDS011;57147;53.582;10.112;2023-06-26T03:57:40;7.18;;;6.47;;
69856;SDS011;57147;53.582;10.112;2023-06-26T04:02:40;8.05;;;6.65;;
69856;SDS011;57147;53.582;10.112;2023-06-26T04:07:41;6.68;;;6.00;;
69856;SDS011;57147;53.582;10.112;2023-06-26T04:12:44;7.07;;;5.93;;
69856;SDS011;57147;53.582;10.112;2023-06-26T04:17:45;8.80;;;6.07;;
69856;SDS011;57147;53.582;10.112;2023-06-26T04:22:45;7.38;;;6.68;;
69856;SDS011;57147;53.582;10.112;2023-06-26T04:27:48;6.88;;;6.03;;
69856;SDS011;57147;53.582;10.112;2023-06-26T04:32:49;7.43;;;6.68;;
69856;SDS011;57147;53.582;10.112;2023-06-26T04:37:49;8.45;;;6.25;;
69856;SDS011;57147;53.582;10.112;2023-06-26T04:42:53;5.93;;;5.32;;
69856;SDS011;57147;53.582;10.112;2023-06-26T04:47:53;8.35;;;5.85;;
69856;SDS011;57147;53.582;10.112;2023-06-26T04:52:54;6.57;;;5.50;;
69856;SDS011;57147;53.582;10.112;2023-06-26T04:57:57;6.00;;;5.40;;
69856;SDS011;57147;53.582;10.112;2023-06-26T05:02:57;6.53;;;5.18;;
69856;SDS011;57147;53.582;10.112;2023-06-26T05:07:58;6.07;;;4.43;;
69856;SDS011;57147;53.582;10.112;2023-06-26T05:13:15;6.72;;;5.63;;
69856;SDS011;57147;53.582;10.112;2023-06-26T05:18:16;5.82;;;5.22;;
69856;SDS011;57147;53.582;10.112;2023-06-26T05:23:16;8.65;;;6.70;;
69856;SDS011;57147;53.582;10.112;2023-06-26T05:28:20;5.57;;;4.78;;
69856;SDS011;57147;53.582;10.112;2023-06-26T05:38:23;5.78;;;5.18;;
69856;SDS011;57147;53.582;10.112;2023-06-26T05:43:27;5.47;;;4.80;;
69856;SDS011;57147;53.582;10.112;2023-06-26T05:48:27;7.15;;;5.60;;
69856;SDS011;57147;53.582;10.112;2023-06-26T05:53:28;5.55;;;4.25;;
69856;SDS011;57147;53.582;10.112;2023-06-26T05:58:32;6.82;;;5.18;;
69856;SDS011;57147;53.582;10.112;2023-06-26T06:03:33;5.70;;;5.05;;
69856;SDS011;57147;53.582;10.112;2023-06-26T06:08:33;6.72;;;4.68;;
69856;SDS011;57147;53.582;10.112;2023-06-26T06:13:37;5.47;;;4.97;;
69856;SDS011;57147;53.582;10.112;2023-06-26T06:18:37;6.03;;;5.43;;
69856;SDS011;57147;53.582;10.112;2023-06-26T06:23:38;7.53;;;5.15;;
69856;SDS011;57147;53.582;10.112;2023-06-26T06:28:41;7.53;;;6.25;;
69856;SDS011;57147;53.582;10.112;2023-06-26T06:33:41;5.55;;;4.45;;
69856;SDS011;57147;53.582;10.112;2023-06-26T06:38:42;6.57;;;4.72;;
69856;SDS011;57147;53.582;10.112;2023-06-26T06:43:45;6.35;;;4.85;;
69856;SDS011;57147;53.582;10.112;2023-06-26T06:48:46;6.38;;;5.22;;
69856;SDS011;57147;53.582;10.112;2023-06-26T06:53:47;5.32;;;4.75;;
69856;SDS011;57147;53.582;10.112;2023-06-26T06:58:50;5.07;;;3.95;;
69856;SDS011;57147;53.582;10.112;2023-06-26T07:03:50;7.05;;;5.05;;
69856;SDS011;57147;53.582;10.112;2023-06-26T07:08:51;7.68;;;5.78;;
69856;SDS011;57147;53.582;10.112;2023-06-26T07:13:54;6.60;;;5.93;;
69856;SDS011;57147;53.582;10.112;2023-06-26T07:18:55;7.10;;;5.10;;
69856;SDS011;57147;53.582;10.112;2023-06-26T07:23:55;6.28;;;4.18;;
69856;SDS011;57147;53.582;10.112;2023-06-26T07:28:59;6.20;;;5.47;;
69856;SDS011;57147;53.582;10.112;2023-06-26T07:33:59;5.60;;;4.80;;
69856;SDS011;57147;53.582;10.112;2023-06-26T07:39:00;6.60;;;5.05;;
69856;SDS011;57147;53.582;10.112;2023-06-26T07:44:04;6.35;;;5.07;;
69856;SDS011;57147;53.582;10.112;2023-06-26T07:49:04;5.03;;;4.22;;
69856;SDS011;57147;53.582;10.112;2023-06-26T07:54:05;6.25;;;3.88;;
69856;SDS011;57147;53.582;10.112;2023-06-26T07:59:08;7.93;;;6.03;;
69856;SDS011;57147;53.582;10.112;2023-06-26T08:04:08;5.70;;;4.97;;
69856;SDS011;57147;53.582;10.112;2023-06-26T08:09:09;7.00;;;5.72;;
69856;SDS011;57147;53.582;10.112;2023-06-26T08:14:12;6.18;;;5.13;;
69856;SDS011;57147;53.582;10.112;2023-06-26T08:24:14;7.57;;;5.10;;
69856;SDS011;57147;53.582;10.112;2023-06-26T08:29:17;6.65;;;5.35;;
69856;SDS011;57147;53.582;10.112;2023-06-26T08:34:18;10.80;;;5.85;;
69856;SDS011;57147;53.582;10.112;2023-06-26T08:39:19;9.98;;;5.90;;
69856;SDS011;57147;53.582;10.112;2023-06-26T08:44:22;7.68;;;5.00;;
69856;SDS011;57147;53.582;10.112;2023-06-26T08:49:25;6.38;;;4.95;;
69856;SDS011;57147;53.582;10.112;2023-06-26T08:54:31;7.43;;;4.88;;
69856;SDS011;57147;53.582;10.112;2023-06-26T08:59:39;6.55;;;5.88;;
69856;SDS011;57147;53.582;10.112;2023-06-26T09:04:39;8.27;;;6.68;;
69856;SDS011;57147;53.582;10.112;2023-06-26T09:09:41;8.88;;;5.40;;
69856;SDS011;57147;53.582;10.112;2023-06-26T09:14:44;7.18;;;5.13;;
69856;SDS011;57147;53.582;10.112;2023-06-26T09:19:45;7.72;;;6.40;;
69856;SDS011;57147;53.582;10.112;2023-06-26T09:24:46;11.18;;;6.70;;
69856;SDS011;57147;53.582;10.112;2023-06-26T09:29:49;9.95;;;6.38;;
69856;SDS011;57147;53.582;10.112;2023-06-26T09:34:51;19.05;;;7.45;;
69856;SDS011;57147;53.582;10.112;2023-06-26T09:39:53;9.27;;;8.23;;
69856;SDS011;57147;53.582;10.112;2023-06-26T09:44:56;8.38;;;7.32;;
69856;SDS011;57147;53.582;10.112;2023-06-26T09:55:09;8.93;;;7.07;;
69856;SDS011;57147;53.582;10.112;2023-06-26T10:00:14;13.13;;;8.35;;
69856;SDS011;57147;53.582;10.112;2023-06-26T10:05:16;10.93;;;7.85;;
69856;SDS011;57147;53.582;10.112;2023-06-26T10:10:16;11.85;;;7.40;;
69856;SDS011;57147;53.582;10.112;2023-06-26T10:15:20;11.13;;;7.57;;
69856;SDS011;57147;53.582;10.112;2023-06-26T10:20:23;12.10;;;8.75;;
69856;SDS011;57147;53.582;10.112;2023-06-26T10:25:25;17.02;;;12.77;;
69856;SDS011;57147;53.582;10.112;2023-06-26T10:30:31;16.10;;;13.10;;
69856;SDS011;57147;53.582;10.112;2023-06-26T10:35:33;20.23;;;15.45;;
69856;SDS011;57147;53.582;10.112;2023-06-26T10:40:41;17.50;;;13.55;;
69856;SDS011;57147;53.582;10.112;2023-06-26T10:45:46;14.00;;;10.18;;
69856;SDS011;57147;53.582;10.112;2023-06-26T10:50:47;17.48;;;11.43;;
69856;SDS011;57147;53.582;10.112;2023-06-26T10:55:48;22.15;;;14.20;;
69856;SDS011;57147;53.582;10.112;2023-06-26T11:01:07;16.67;;;10.65;;
69856;SDS011;57147;53.582;10.112;2023-06-26T11:06:15;14.18;;;11.45;;
69856;SDS011;57147;53.582;10.112;2023-06-26T11:11:17;17.33;;;13.32;;
69856;SDS011;57147;53.582;10.112;2023-06-26T11:16:20;17.20;;;12.02;;
69856;SDS011;57147;53.582;10.112;2023-06-26T11:21:21;17.92;;;11.95;;
69856;SDS011;57147;53.582;10.112;2023-06-26T11:26:22;13.93;;;11.15;;
69856;SDS011;57147;53.582;10.112;2023-06-26T11:31:26;13.68;;;9.70;;
69856;SDS011;57147;53.582;10.112;2023-06-26T11:36:28;14.90;;;7.43;;
69856;SDS011;57147;53.582;10.112;2023-06-26T11:41:30;9.45;;;6.28;;
69856;SDS011;57147;53.582;10.112;2023-06-26T11:46:33;11.48;;;6.28;;
69856;SDS011;57147;53.582;10.112;2023-06-26T11:51:36;16.08;;;6.38;;
69856;SDS011;57147;53.582;10.112;2023-06-26T11:56:37;12.85;;;4.88;;
69856;SDS011;57147;53.582;10.112;2023-06-26T12:01:40;9.05;;;4.30;;
69856;SDS011;57147;53.582;10.112;2023-06-26T12:06:42;8.02;;;3.50;;
69856;SDS011;57147;53.582;10.112;2023-06-26T12:11:46;8.70;;;2.90;;
69856;SDS011;57147;53.582;10.112;2023-06-26T12:16:51;7.10;;;1.67;;
69856;SDS011;57147;53.582;10.112;2023-06-26T12:21:53;10.00;;;2.45;;
69856;SDS011;57147;53.582;10.112;2023-06-26T12:26:54;7.97;;;1.58;;
69856;SDS011;57147;53.582;10.112;2023-06-26T12:31:57;8.38;;;2.15;;
69856;SDS011;57147;53.582;10.112;2023-06-26T12:36:59;10.57;;;1.75;;
69856;SDS011;57147;53.582;10.112;2023-06-26T12:42:01;5.97;;;1.83;;
69856;SDS011;57147;53.582;10.112;2023-06-26T12:47:05;5.18;;;1.88;;
69856;SDS011;57147;53.582;10.112;2023-06-26T12:52:06;5.78;;;1.75;;
69856;SDS011;57147;53.582;10.112;2023-06-26T12:57:08;7.03;;;1.63;;
69856;SDS011;57147;53.582;10.112;2023-06-26T13:02:11;6.57;;;1.70;;
69856;SDS011;57147;53.582;10.112;2023-06-26T13:07:12;7.45;;;1.35;;
69856;SDS011;57147;53.582;10.112;2023-06-26T13:12:13;6.40;;;1.30;;
69856;SDS011;57147;53.582;10.112;2023-06-26T13:17:16;5.78;;;1.65;;
69856;SDS011;57147;53.582;10.112;2023-06-26T13:22:16;5.88;;;0.70;;
69856;SDS011;57147;53.582;10.112;2023-06-26T13:27:17;4.95;;;1.30;;
69856;SDS011;57147;53.582;10.112;2023-06-26T13:32:20;3.63;;;1.10;;
69856;SDS011;57147;53.582;10.112;2023-06-26T13:37:21;4.60;;;1.17;;
69856;SDS011;57147;53.582;10.112;2023-06-26T13:42:21;6.35;;;1.20;;
69856;SDS011;57147;53.582;10.112;2023-06-26T13:47:25;3.30;;;0.60;;
69856;SDS011;57147;53.582;10.112;2023-06-26T13:52:25;3.15;;;1.15;;
69856;SDS011;57147;53.582;10.112;2023-06-26T13:57:26;5.57;;;1.25;;
69856;SDS011;57147;53.582;10.112;2023-06-26T14:02:29;3.72;;;1.23;;
69856;SDS011;57147;53.582;10.112;2023-06-26T14:07:29;4.88;;;1.08;;
69856;SDS011;57147;53.582;10.112;2023-06-26T14:12:30;2.42;;;0.77;;
69856;SDS011;57147;53.582;10.112;2023-06-26T14:17:33;3.45;;;0.68;;
69856;SDS011;57147;53.582;10.112;2023-06-26T14:22:34;4.53;;;0.90;;
69856;SDS011;57147;53.582;10.112;2023-06-26T14:27:34;3.72;;;0.82;;
69856;SDS011;57147;53.582;10.112;2023-06-26T14:32:38;3.42;;;0.65;;
69856;SDS011;57147;53.582;10.112;2023-06-26T14:37:38;4.95;;;0.82;;
69856;SDS011;57147;53.582;10.112;2023-06-26T14:42:39;2.95;;;0.80;;
69856;SDS011;57147;53.582;10.112;2023-06-26T14:47:42;3.90;;;0.88;;
69856;SDS011;57147;53.582;10.112;2023-06-26T14:52:43;3.25;;;1.33;;
69856;SDS011;57147;53.582;10.112;2023-06-26T14:57:43;2.83;;;1.00;;
69856;SDS011;57147;53.582;10.112;2023-06-26T15:02:47;4.35;;;0.60;;
69856;SDS011;57147;53.582;10.112;2023-06-26T15:07:47;3.42;;;0.85;;
69856;SDS011;57147;53.582;10.112;2023-06-26T15:12:48;2.50;;;2.17;;
69856;SDS011;57147;53.582;10.112;2023-06-26T15:17:51;3.08;;;0.70;;
69856;SDS011;57147;53.582;10.112;2023-06-26T15:22:52;2.97;;;0.43;;
69856;SDS011;57147;53.582;10.112;2023-06-26T15:27:53;2.22;;;1.40;;
69856;SDS011;57147;53.582;10.112;2023-06-26T15:32:56;4.85;;;0.40;;
69856;SDS011;57147;53.582;10.112;2023-06-26T15:37:57;2.35;;;0.77;;
69856;SDS011;57147;53.582;10.112;2023-06-26T15:42:57;3.75;;;1.80;;
69856;SDS011;57147;53.582;10.112;2023-06-26T15:48:01;2.15;;;0.73;;
69856;SDS011;57147;53.582;10.112;2023-06-26T15:53:01;3.97;;;1.27;;
69856;SDS011;57147;53.582;10.112;2023-06-26T15:58:02;2.13;;;0.75;;
69856;SDS011;57147;53.582;10.112;2023-06-26T16:03:06;3.22;;;0.60;;
69856;SDS011;57147;53.582;10.112;2023-06-26T16:08:06;3.33;;;0.98;;
69856;SDS011;57147;53.582;10.112;2023-06-26T16:13:07;2.70;;;0.98;;
69856;SDS011;57147;53.582;10.112;2023-06-26T16:18:10;4.47;;;0.57;;
69856;SDS011;57147;53.582;10.112;2023-06-26T16:23:10;3.80;;;0.70;;
69856;SDS011;57147;53.582;10.112;2023-06-26T16:28:11;4.63;;;1.17;;
69856;SDS011;57147;53.582;10.112;2023-06-26T16:33:14;3.72;;;1.17;;
69856;SDS011;57147;53.582;10.112;2023-06-26T16:38:15;4.75;;;0.73;;
69856;SDS011;57147;53.582;10.112;2023-06-26T16:43:15;3.40;;;0.68;;
69856;SDS011;57147;53.582;10.112;2023-06-26T16:48:21;4.07;;;1.02;;
69856;SDS011;57147;53.582;10.112;2023-06-26T16:53:22;5.05;;;1.05;;
69856;SDS011;57147;53.582;10.112;2023-06-26T16:58:23;2.50;;;0.77;;
69856;SDS011;57147;53.582;10.112;2023-06-26T17:03:26;4.07;;;0.85;;
69856;SDS011;57147;53.582;10.112;2023-06-26T17:08:27;5.95;;;1.23;;
69856;SDS011;57147;53.582;10.112;2023-06-26T17:13:27;3.78;;;0.80;;
69856;SDS011;57147;53.582;10.112;2023-06-26T17:18:30;5.78;;;0.93;;
69856;SDS011;57147;53.582;10.112;2023-06-26T17:23:31;3.92;;;1.10;;
69856;SDS011;57147;53.582;10.112;2023-06-26T17:28:32;4.70;;;1.45;;
69856;SDS011;57147;53.582;10.112;2023-06-26T17:33:35;6.35;;;1.13;;
69856;SDS011;57147;53.582;10.112;2023-06-26T17:38:35;4.28;;;1.00;;
69856;SDS011;57147;53.582;10.112;2023-06-26T17:43:36;4.18;;;1.08;;
69856;SDS011;57147;53.582;10.112;2023-06-26T17:48:39;5.13;;;0.90;;
69856;SDS011;57147;53.582;10.112;2023-06-26T17:53:39;4.60;;;1.02;;
69856;SDS011;57147;53.582;10.112;2023-06-26T17:58:40;4.32;;;1.25;;
69856;SDS011;57147;53.582;10.112;2023-06-26T18:03:43;4.82;;;0.70;;
69856;SDS011;57147;53.582;10.112;2023-06-26T18:08:44;5.72;;;1.33;;
69856;SDS011;57147;53.582;10.112;2023-06-26T18:13:44;6.03;;;0.77;;
69856;SDS011;57147;53.582;10.112;2023-06-26T18:18:48;6.93;;;1.30;;
69856;SDS011;57147;53.582;10.112;2023-06-26T18:23:48;7.50;;;1.10;;
69856;SDS011;57147;53.582;10.112;2023-06-26T18:28:49;4.43;;;1.08;;
69856;SDS011;57147;53.582;10.112;2023-06-26T18:33:52;8.80;;;2.58;;
69856;SDS011;57147;53.582;10.112;2023-06-26T18:38:53;4.18;;;1.00;;
69856;SDS011;57147;53.582;10.112;2023-06-26T18:43:53;6.75;;;1.30;;
69856;SDS011;57147;53.582;10.112;2023-06-26T18:49:03;4.57;;;1.58;;
69856;SDS011;57147;53.582;10.112;2023-06-26T18:54:05;6.50;;;1.08;;
69856;SDS011;57147;53.582;10.112;2023-06-26T18:59:05;5.28;;;1.55;;
69856;SDS011;57147;53.582;10.112;2023-06-26T19:04:09;6.90;;;1.25;;
69856;SDS011;57147;53.582;10.112;2023-06-26T19:09:09;5.70;;;1.65;;
69856;SDS011;57147;53.582;10.112;2023-06-26T19:14:10;5.85;;;1.90;;
69856;SDS011;57147;53.582;10.112;2023-06-26T19:19:13;7.05;;;1.95;;
69856;SDS011;57147;53.582;10.112;2023-06-26T19:24:13;6.80;;;1.77;;
69856;SDS011;57147;53.582;10.112;2023-06-26T19:29:14;5.32;;;1.20;;
69856;SDS011;57147;53.582;10.112;2023-06-26T19:34:17;4.57;;;1.35;;
69856;SDS011;57147;53.582;10.112;2023-06-26T19:39:18;4.38;;;1.30;;
69856;SDS011;57147;53.582;10.112;2023-06-26T19:44:19;2.90;;;1.40;;
69856;SDS011;57147;53.582;10.112;2023-06-26T19:49:23;5.38;;;0.95;;
69856;SDS011;57147;53.582;10.112;2023-06-26T19:54:23;8.27;;;2.20;;
69856;SDS011;57147;53.582;10.112;2023-06-26T19:59:24;6.25;;;1.10;;
69856;SDS011;57147;53.582;10.112;2023-06-26T20:04:27;6.93;;;1.65;;
69856;SDS011;57147;53.582;10.112;2023-06-26T20:09:28;7.93;;;1.55;;
69856;SDS011;57147;53.582;10.112;2023-06-26T20:14:29;7.43;;;1.35;;
69856;SDS011;57147;53.582;10.112;2023-06-26T20:19:33;7.78;;;1.42;;
69856;SDS011;57147;53.582;10.112;2023-06-26T20:24:33;8.25;;;2.58;;
69856;SDS011;57147;53.582;10.112;2023-06-26T20:29:34;6.80;;;1.42;;
69856;SDS011;57147;53.582;10.112;2023-06-26T20:34:37;7.15;;;1.63;;
69856;SDS011;57147;53.582;10.112;2023-06-26T20:39:38;8.35;;;2.53;;
69856;SDS011;57147;53.582;10.112;2023-06-26T20:44:39;6.18;;;1.45;;
69856;SDS011;57147;53.582;10.112;2023-06-26T20:49:43;5.35;;;1.52;;
69856;SDS011;57147;53.582;10.112;2023-06-26T20:54:45;7.93;;;1.30;;
69856;SDS011;57147;53.582;10.112;2023-06-26T20:59:46;8.07;;;1.67;;
69856;SDS011;57147;53.582;10.112;2023-06-26T21:04:49;6.82;;;1.40;;
69856;SDS011;57147;53.582;10.112;2023-06-26T21:09:50;5.95;;;1.75;;
69856;SDS011;57147;53.582;10.112;2023-06-26T21:14:50;8.23;;;1.70;;
69856;SDS011;57147;53.582;10.112;2023-06-26T21:19:53;8.25;;;1.58;;
69856;SDS011;57147;53.582;10.112;2023-06-26T21:24:54;8.80;;;1.95;;
69856;SDS011;57147;53.582;10.112;2023-06-26T21:29:54;9.27;;;2.00;;
69856;SDS011;57147;53.582;10.112;2023-06-26T21:34:58;10.25;;;1.38;;
69856;SDS011;57147;53.582;10.112;2023-06-26T21:39:58;7.32;;;1.58;;
69856;SDS011;57147;53.582;10.112;2023-06-26T21:44:59;7.60;;;2.03;;
69856;SDS011;57147;53.582;10.112;2023-06-26T21:50:02;9.82;;;1.67;;
69856;SDS011;57147;53.582;10.112;2023-06-26T21:55:04;9.52;;;2.10;;
69856;SDS011;57147;53.582;10.112;2023-06-26T22:00:05;9.68;;;1.75;;
69856;SDS011;57147;53.582;10.112;2023-06-26T22:05:09;9.20;;;1.50;;
69856;SDS011;57147;53.582;10.112;2023-06-26T22:10:11;9.10;;;1.75;;
69856;SDS011;57147;53.582;10.112;2023-06-26T22:15:12;9.32;;;1.95;;
69856;SDS011;57147;53.582;10.112;2023-06-26T22:20:15;10.43;;;1.48;;
69856;SDS011;57147;53.582;10.112;2023-06-26T22:25:16;6.60;;;1.58;;
69856;SDS011;57147;53.582;10.112;2023-06-26T22:30:17;8.15;;;1.42;;
69856;SDS011;57147;53.582;10.112;2023-06-26T22:35:22;7.53;;;1.42;;
69856;SDS011;57147;53.582;10.112;2023-06-26T22:40:22;9.85;;;2.20;;
69856;SDS011;57147;53.582;10.112;2023-06-26T22:45:23;6.50;;;1.30;;
69856;SDS011;57147;53.582;10.112;2023-06-26T22:50:26;7.45;;;1.67;;
69856;SDS011;57147;53.582;10.112;2023-06-26T22:55:27;6.60;;;1.42;;
69856;SDS011;57147;53.582;10.112;2023-06-26T23:00:27;9.32;;;2.20;;
69856;SDS011;57147;53.582;10.112;2023-06-26T23:05:31;7.95;;;1.50;;
69856;SDS011;57147;53.582;10.112;2023-06-26T23:10:31;7.60;;;1.50;;
69856;SDS011;57147;53.582;10.112;2023-06-26T23:15:32;8.60;;;1.95;;
69856;SDS011;57147;53.582;10.112;2023-06-26T23:20:35;8.32;;;1.50;;
69856;SDS011;57147;53.582;10.112;2023-06-26T23:25:36;11.25;;;1.58;;
69856;SDS011;57147;53.582;10.112;2023-06-26T23:30:36;6.78;;;1.20;;
69856;SDS011;57147;53.582;10.112;2023-06-26T23:35:39;6.90;;;1.55;;
69856;SDS011;57147;53.582;10.112;2023-06-26T23:40:40;9.98;;;3.22;;
69856;SDS011;57147;53.582;10.112;2023-06-26T23:45:41;9.38;;;1.92;;
69856;SDS011;57147;53.582;10.112;2023-06-26T23:50:44;6.30;;;1.17;;
